createdAt,value
2023-01-19T00:01:21.455Z,19.90
2023-01-19T00:04:19.795Z,19.40
2023-01-19T00:07:17.907Z,18.27
2023-01-19T00:10:15.818Z,14.83
2023-01-19T00:13:14.566Z,20.83
2023-01-19T00:16:12.480Z,24.93
2023-01-19T00:19:10.303Z,21.43
2023-01-19T00:22:11.035Z,18.70
2023-01-19T00:25:09.216Z,15.70
2023-01-19T00:28:09.922Z,16.60
2023-01-19T00:31:07.735Z,18.60
2023-01-19T00:34:06.513Z,27.43
2023-01-19T00:37:04.934Z,27.10
2023-01-19T00:40:02.925Z,22.73
2023-01-19T00:43:01.219Z,23.87
2023-01-19T00:45:59.662Z,21.30
2023-01-19T00:48:57.469Z,19.33
2023-01-19T00:51:55.330Z,18.07
2023-01-19T00:54:53.283Z,13.30
2023-01-19T00:57:51.327Z,11.97
2023-01-19T01:00:49.476Z,11.80
2023-01-19T01:03:47.386Z,12.03
2023-01-19T01:06:45.234Z,10.73
2023-01-19T01:09:43.384Z,10.67
2023-01-19T01:12:41.664Z,12.03
2023-01-19T01:15:55.251Z,10.57
2023-01-19T01:18:53.040Z,12.60
2023-01-19T01:21:51.800Z,14.93
2023-01-19T01:24:49.580Z,12.60
2023-01-19T01:27:47.667Z,12.43
2023-01-19T01:30:45.782Z,12.50
2023-01-19T01:33:43.766Z,13.40
2023-01-19T01:36:42.252Z,13.03
2023-01-19T01:39:40.348Z,12.67
2023-01-19T01:42:38.151Z,12.57
2023-01-19T01:45:40.094Z,11.03
2023-01-19T01:48:39.732Z,8.63
2023-01-19T01:51:51.637Z,10.50
2023-01-19T01:54:49.497Z,9.20
2023-01-19T01:57:52.176Z,11.10
2023-01-19T02:01:05.331Z,10.90
2023-01-19T02:04:03.785Z,20.50
2023-01-19T02:07:17.195Z,30.43
2023-01-19T02:10:30.643Z,34.93
2023-01-19T02:13:30.634Z,32.50
2023-01-19T02:16:28.733Z,25.87
2023-01-19T02:19:34.611Z,23.00
2023-01-19T02:22:39.595Z,21.67
2023-01-19T02:25:37.236Z,17.00
2023-01-19T02:28:35.239Z,17.97
2023-01-19T02:31:35.171Z,13.63
2023-01-19T02:34:33.826Z,14.53
2023-01-19T02:37:37.864Z,13.47
2023-01-19T02:40:37.385Z,12.27
2023-01-19T02:43:36.817Z,9.90
2023-01-19T02:46:34.797Z,10.50
2023-01-19T02:49:32.538Z,9.50
2023-01-19T02:52:30.977Z,14.57
2023-01-19T02:55:31.203Z,15.93
2023-01-19T02:58:50.069Z,13.57
2023-01-19T03:02:04.626Z,8.73
2023-01-19T03:05:34.743Z,8.10
2023-01-19T03:08:49.103Z,8.00
2023-01-19T03:11:54.752Z,11.70
2023-01-19T03:14:56.440Z,15.93
2023-01-19T03:17:55.070Z,12.57
2023-01-19T03:20:59.478Z,13.70
2023-01-19T03:24:03.637Z,15.70
2023-01-19T03:27:06.558Z,17.97
2023-01-19T03:30:10.972Z,20.65
2023-01-19T03:33:13.572Z,19.20
2023-01-19T03:36:17.362Z,17.42
2023-01-19T03:39:21.975Z,16.07
2023-01-19T03:42:21.232Z,15.17
2023-01-19T03:45:20.024Z,14.47
2023-01-19T03:48:17.917Z,14.13
2023-01-19T03:51:16.700Z,12.30
2023-01-19T03:54:14.722Z,14.03
2023-01-19T03:57:12.905Z,13.90
2023-01-19T04:00:12.040Z,20.53
2023-01-19T04:03:18.692Z,23.80
2023-01-19T04:06:16.684Z,23.97
2023-01-19T04:09:14.443Z,21.00
2023-01-19T04:12:12.204Z,19.20
2023-01-19T04:15:09.997Z,18.97
2023-01-19T04:18:07.745Z,19.17
2023-01-19T04:21:07.911Z,24.90
2023-01-19T04:24:05.917Z,32.00
2023-01-19T04:27:03.569Z,39.67
2023-01-19T04:30:01.585Z,46.40
2023-01-19T04:33:00.602Z,48.87
2023-01-19T04:35:58.913Z,51.07
2023-01-19T04:38:56.807Z,55.07
2023-01-19T04:41:55.143Z,62.97
2023-01-19T04:44:53.164Z,69.77
2023-01-19T04:47:52.545Z,67.67
2023-01-19T04:50:52.948Z,69.50
2023-01-19T04:53:50.714Z,68.20
2023-01-19T04:56:48.490Z,77.33
2023-01-19T04:59:46.281Z,79.13
2023-01-19T05:02:45.577Z,77.60
2023-01-19T05:05:43.582Z,78.80
2023-01-19T05:08:41.204Z,85.93
2023-01-19T05:11:38.987Z,87.83
2023-01-19T05:14:36.928Z,90.13
2023-01-19T05:17:34.980Z,91.63
2023-01-19T05:20:32.690Z,93.37
2023-01-19T05:23:32.183Z,98.90
2023-01-19T05:26:29.801Z,94.03
2023-01-19T05:29:27.775Z,97.27
2023-01-19T05:32:25.499Z,97.63
2023-01-19T05:35:35.292Z,101.27
2023-01-19T05:38:35.563Z,102.33
2023-01-19T05:41:33.478Z,101.73
2023-01-19T05:44:31.059Z,110.37
2023-01-19T05:47:31.088Z,105.27
2023-01-19T05:50:28.699Z,109.43
2023-01-19T05:53:27.342Z,110.53
2023-01-19T05:56:24.978Z,105.43
2023-01-19T05:59:24.762Z,104.63
2023-01-19T06:02:28.934Z,110.67
2023-01-19T06:05:27.083Z,111.67
2023-01-19T06:08:24.744Z,112.77
2023-01-19T06:11:23.111Z,123.33
2023-01-19T06:14:24.285Z,109.43
2023-01-19T06:17:22.336Z,108.57
2023-01-19T06:20:20.055Z,111.73
2023-01-19T06:23:17.769Z,113.60
2023-01-19T06:26:15.384Z,112.23
2023-01-19T06:29:13.777Z,108.37
2023-01-19T06:32:11.617Z,99.53
2023-01-19T06:35:09.939Z,102.60
2023-01-19T06:38:07.582Z,102.70
2023-01-19T06:41:05.562Z,103.03
2023-01-19T06:44:03.869Z,108.33
2023-01-19T06:47:14.942Z,110.17
2023-01-19T06:50:13.454Z,110.53
2023-01-19T06:53:11.469Z,113.87
2023-01-19T06:56:10.155Z,107.67
2023-01-19T06:59:09.020Z,106.97
2023-01-19T07:02:27.679Z,104.88
2023-01-19T07:05:24.950Z,101.00
2023-01-19T07:08:22.746Z,97.60
2023-01-19T07:11:24.733Z,111.80
2023-01-19T07:14:33.857Z,112.10
2023-01-19T07:17:31.658Z,105.70
2023-01-19T07:20:29.481Z,98.93
2023-01-19T07:23:31.086Z,99.60
2023-01-19T07:26:29.791Z,105.90
2023-01-19T07:29:27.566Z,116.13
2023-01-19T07:32:25.211Z,108.82
2023-01-19T07:35:23.036Z,117.00
2023-01-19T07:38:21.365Z,118.93
2023-01-19T07:41:19.139Z,119.93
2023-01-19T07:44:16.983Z,118.90
2023-01-19T07:47:15.012Z,120.70
2023-01-19T07:50:14.273Z,119.53
2023-01-19T07:53:12.456Z,117.10
2023-01-19T07:56:10.886Z,125.80
2023-01-19T07:59:10.753Z,120.43
2023-01-19T08:02:11.146Z,120.03
2023-01-19T08:05:09.704Z,122.95
2023-01-19T08:08:07.556Z,121.20
2023-01-19T08:11:05.667Z,118.18
2023-01-19T08:14:03.476Z,122.32
2023-01-19T08:17:02.762Z,116.70
2023-01-19T08:20:00.663Z,115.90
2023-01-19T08:23:03.468Z,114.93
2023-01-19T08:26:01.369Z,119.75
2023-01-19T08:29:01.449Z,112.25
2023-01-19T08:32:00.703Z,118.50
2023-01-19T08:34:58.618Z,122.43
2023-01-19T08:37:56.593Z,139.98
2023-01-19T08:40:54.483Z,142.82
2023-01-19T08:43:52.342Z,141.82
2023-01-19T08:46:50.126Z,146.07
2023-01-19T08:49:48.005Z,136.57
2023-01-19T08:52:45.986Z,134.63
2023-01-19T08:55:43.968Z,133.20
2023-01-19T08:58:43.606Z,131.38
2023-01-19T09:01:42.706Z,131.23
2023-01-19T09:04:40.914Z,133.27
2023-01-19T09:07:39.246Z,125.43
2023-01-19T09:10:40.048Z,132.05
2023-01-19T09:13:38.028Z,128.80
2023-01-19T09:16:35.884Z,131.57
2023-01-19T09:19:35.193Z,121.60
2023-01-19T09:22:33.905Z,123.10
2023-01-19T09:25:33.076Z,129.30
2023-01-19T09:28:31.562Z,115.73
2023-01-19T09:31:29.435Z,122.50
2023-01-19T09:34:27.418Z,122.07
2023-01-19T09:37:25.073Z,121.30
2023-01-19T09:40:23.123Z,116.32
2023-01-19T09:43:41.529Z,118.60
2023-01-19T09:46:42.213Z,115.60
2023-01-19T09:49:46.219Z,117.25
2023-01-19T09:52:53.662Z,117.20
2023-01-19T09:55:51.740Z,120.07
2023-01-19T09:58:51.655Z,122.10
2023-01-19T10:02:28.945Z,113.03
2023-01-19T10:05:42.909Z,115.63
2023-01-19T10:08:52.117Z,115.10
2023-01-19T10:11:57.502Z,118.53
2023-01-19T10:15:07.321Z,112.60
2023-01-19T10:18:18.226Z,107.63
2023-01-19T10:21:25.835Z,113.43
2023-01-19T10:24:40.005Z,117.97
2023-01-19T10:27:39.147Z,110.63
2023-01-19T10:30:37.248Z,111.87
2023-01-19T10:33:35.682Z,109.73
2023-01-19T10:36:41.585Z,113.70
2023-01-19T10:39:40.499Z,107.88
2023-01-19T10:42:40.643Z,110.30
2023-01-19T10:45:38.575Z,107.77
2023-01-19T10:48:41.267Z,110.03
2023-01-19T10:51:49.637Z,110.90
2023-01-19T10:54:48.984Z,109.13
2023-01-19T10:57:51.866Z,110.77
2023-01-19T11:00:49.703Z,108.35
2023-01-19T11:03:47.911Z,108.93
2023-01-19T11:06:45.596Z,111.37
2023-01-19T11:09:43.358Z,110.50
2023-01-19T11:12:47.474Z,111.93
2023-01-19T11:16:00.040Z,107.13
2023-01-19T11:18:59.329Z,103.88
2023-01-19T11:22:22.341Z,98.67
2023-01-19T11:25:31.495Z,100.97
2023-01-19T11:28:34.522Z,101.13
2023-01-19T11:31:35.620Z,100.82
2023-01-19T11:34:37.163Z,98.07
2023-01-19T11:37:35.225Z,106.93
2023-01-19T11:40:34.432Z,93.80
2023-01-19T11:43:48.259Z,93.37
2023-01-19T11:46:53.968Z,90.20
2023-01-19T11:50:05.263Z,91.77
2023-01-19T11:53:13.370Z,88.13
2023-01-19T11:56:12.909Z,89.80
2023-01-19T11:59:13.619Z,87.10
2023-01-19T12:02:33.233Z,89.33
2023-01-19T12:05:34.080Z,89.50
2023-01-19T12:08:40.191Z,89.93
2023-01-19T12:11:43.415Z,90.43
2023-01-19T12:14:51.024Z,90.50
2023-01-19T12:17:53.100Z,90.30
2023-01-19T12:20:54.293Z,91.37
2023-01-19T12:24:04.061Z,92.67
2023-01-19T12:27:26.537Z,88.93
2023-01-19T12:30:27.448Z,86.30
2023-01-19T12:33:40.904Z,91.60
2023-01-19T12:36:39.625Z,92.63
2023-01-19T12:39:49.430Z,93.57
2023-01-19T12:42:54.259Z,89.20
2023-01-19T12:45:52.173Z,86.97
2023-01-19T12:48:50.054Z,91.97
2023-01-19T12:51:48.667Z,92.40
2023-01-19T12:55:04.285Z,95.43
2023-01-19T12:58:05.342Z,84.97
2023-01-19T13:01:16.495Z,89.60
2023-01-19T13:04:33.207Z,88.53
2023-01-19T13:07:30.828Z,84.43
2023-01-19T13:10:59.299Z,89.60
2023-01-19T13:14:32.028Z,89.00
2023-01-19T13:17:34.582Z,83.10
2023-01-19T13:20:45.331Z,84.63
2023-01-19T13:23:56.394Z,84.23
2023-01-19T13:26:58.020Z,82.43
2023-01-19T13:29:55.857Z,81.63
2023-01-19T13:32:57.043Z,81.10
2023-01-19T13:35:59.179Z,82.23
2023-01-19T13:38:59.392Z,80.57
2023-01-19T13:42:01.898Z,82.03
2023-01-19T13:45:03.043Z,83.00
2023-01-19T13:48:05.185Z,85.20
2023-01-19T13:51:06.035Z,85.37
2023-01-19T13:54:04.231Z,85.13
2023-01-19T13:57:02.107Z,85.33
2023-01-19T14:00:19.927Z,84.80
2023-01-19T14:03:23.988Z,78.10
2023-01-19T14:06:31.928Z,83.77
2023-01-19T14:09:29.671Z,82.57
2023-01-19T14:12:27.979Z,76.53
2023-01-19T14:15:25.899Z,75.20
2023-01-19T14:18:27.463Z,79.20
2023-01-19T14:21:25.261Z,78.23
2023-01-19T14:24:24.445Z,77.67
2023-01-19T14:27:25.288Z,76.47
2023-01-19T14:30:26.514Z,75.63
2023-01-19T14:33:41.830Z,78.47
2023-01-19T14:36:42.486Z,75.20
2023-01-19T14:39:46.707Z,76.70
2023-01-19T14:42:52.891Z,70.37
2023-01-19T14:45:50.600Z,72.37
2023-01-19T14:48:50.989Z,70.20
2023-01-19T14:51:49.609Z,69.57
2023-01-19T14:54:49.193Z,65.40
2023-01-19T14:57:47.313Z,60.93
2023-01-19T15:00:46.591Z,59.33
2023-01-19T15:03:45.618Z,59.97
2023-01-19T15:06:46.320Z,60.17
2023-01-19T15:09:44.231Z,66.90
2023-01-19T15:12:41.967Z,60.90
2023-01-19T15:15:39.724Z,64.37
2023-01-19T15:18:37.511Z,67.77
2023-01-19T15:21:35.147Z,63.23
2023-01-19T15:24:33.003Z,65.83
2023-01-19T15:27:30.681Z,64.20
2023-01-19T15:30:34.208Z,68.17
2023-01-19T15:33:32.064Z,64.43
2023-01-19T15:36:29.858Z,62.90
2023-01-19T15:39:27.527Z,63.60
2023-01-19T15:42:25.277Z,64.03
2023-01-19T15:45:49.337Z,63.00
2023-01-19T15:48:47.820Z,61.40
2023-01-19T15:51:46.164Z,58.40
2023-01-19T15:54:43.888Z,57.13
2023-01-19T15:57:41.545Z,61.87
2023-01-19T16:00:46.258Z,59.27
2023-01-19T16:03:45.413Z,59.10
2023-01-19T16:06:43.158Z,63.07
2023-01-19T16:09:40.890Z,61.17
2023-01-19T16:12:38.828Z,64.40
2023-01-19T16:15:38.445Z,65.53
2023-01-19T16:18:36.815Z,64.40
2023-01-19T16:21:34.440Z,61.17
2023-01-19T16:24:32.819Z,64.07
2023-01-19T16:27:30.540Z,61.80
2023-01-19T16:30:28.303Z,65.70
2023-01-19T16:33:25.994Z,59.70
2023-01-19T16:36:28.505Z,57.17
2023-01-19T16:39:26.157Z,61.30
2023-01-19T16:42:24.245Z,60.33
2023-01-19T16:45:21.840Z,58.80
2023-01-19T16:48:19.578Z,57.67
2023-01-19T16:51:17.465Z,55.40
2023-01-19T16:54:17.685Z,57.40
2023-01-19T16:57:15.349Z,57.23
2023-01-19T17:00:13.882Z,59.67
2023-01-19T17:03:11.706Z,61.63
2023-01-19T17:06:12.361Z,59.27
2023-01-19T17:09:10.570Z,55.87
2023-01-19T17:12:09.672Z,54.03
2023-01-19T17:15:07.953Z,53.57
2023-01-19T17:18:06.145Z,50.93
2023-01-19T17:21:07.317Z,53.00
2023-01-19T17:24:05.424Z,54.20
2023-01-19T17:27:03.365Z,57.27
2023-01-19T17:30:01.155Z,52.07
2023-01-19T17:32:58.843Z,54.00
2023-01-19T17:35:58.578Z,59.13
2023-01-19T17:38:58.263Z,54.03
2023-01-19T17:41:56.234Z,52.67
2023-01-19T17:44:53.872Z,51.00
2023-01-19T17:47:51.661Z,44.47
2023-01-19T17:50:49.279Z,40.00
2023-01-19T17:53:47.124Z,35.17
2023-01-19T17:56:44.789Z,32.20
2023-01-19T17:59:44.233Z,29.30
2023-01-19T18:02:41.951Z,32.27
2023-01-19T18:05:39.817Z,29.73
2023-01-19T18:08:43.164Z,29.23
2023-01-19T18:14:40.662Z,28.10
2023-01-19T18:17:38.459Z,33.83
2023-01-19T18:20:40.161Z,36.70
2023-01-19T18:23:38.526Z,35.67
2023-01-19T18:26:36.736Z,38.50
2023-01-19T18:29:34.779Z,47.17
2023-01-19T18:32:34.827Z,41.97
2023-01-19T18:35:32.741Z,46.50
2023-01-19T18:38:30.504Z,43.20
2023-01-19T18:41:29.982Z,39.87
2023-01-19T18:44:27.683Z,35.43
2023-01-19T18:47:25.573Z,30.93
2023-01-19T18:50:23.248Z,31.10
2023-01-19T18:53:21.746Z,27.57
2023-01-19T18:56:19.616Z,24.53
2023-01-19T18:59:17.323Z,25.63
2023-01-19T19:02:15.085Z,20.73
2023-01-19T19:05:12.874Z,19.00
2023-01-19T19:08:10.874Z,14.90
2023-01-19T19:11:09.764Z,16.53
2023-01-19T19:14:07.493Z,18.50
2023-01-19T19:17:05.315Z,18.43
2023-01-19T19:20:03.416Z,16.03
2023-01-19T19:23:20.552Z,16.63
2023-01-19T19:26:18.772Z,19.97
2023-01-19T19:29:16.504Z,25.43
2023-01-19T19:32:14.165Z,23.10
2023-01-19T19:35:13.174Z,22.77
2023-01-19T19:38:10.798Z,28.60
2023-01-19T19:41:10.589Z,26.07
2023-01-19T19:44:10.800Z,31.90
2023-01-19T19:47:08.743Z,32.63
2023-01-19T19:50:06.724Z,30.33
2023-01-19T19:53:04.452Z,36.93
2023-01-19T19:56:04.093Z,38.20
2023-01-19T19:59:02.136Z,31.80
2023-01-19T20:01:59.859Z,28.13
2023-01-19T20:04:59.007Z,25.57
2023-01-19T20:07:56.724Z,20.50
2023-01-19T20:10:54.668Z,16.77
2023-01-19T20:13:52.557Z,13.87
2023-01-19T20:16:50.511Z,14.40
2023-01-19T20:19:49.290Z,11.83
2023-01-19T20:22:47.005Z,14.17
2023-01-19T20:25:44.748Z,25.77
2023-01-19T20:28:42.865Z,21.33
2023-01-19T20:31:44.921Z,21.57
2023-01-19T20:34:42.836Z,32.47
2023-01-19T20:37:40.481Z,33.53
2023-01-19T20:40:38.307Z,36.23
2023-01-19T20:43:36.719Z,34.90
2023-01-19T20:46:34.461Z,29.90
2023-01-19T20:49:32.489Z,28.07
2023-01-19T20:52:30.588Z,31.00
2023-01-19T20:55:28.261Z,25.53
2023-01-19T20:58:26.354Z,25.93
2023-01-19T21:01:25.882Z,30.00
2023-01-19T21:04:23.772Z,25.40
2023-01-19T21:07:21.678Z,32.30
2023-01-19T21:10:19.765Z,26.20
2023-01-19T21:13:17.397Z,27.90
2023-01-19T21:16:16.144Z,37.47
2023-01-19T21:19:14.105Z,29.47
2023-01-19T21:22:11.951Z,25.27
2023-01-19T21:25:10.083Z,24.00
2023-01-19T21:28:10.971Z,34.20
2023-01-19T21:31:13.379Z,26.30
2023-01-19T21:34:11.410Z,26.92
2023-01-19T21:37:09.036Z,26.93
2023-01-19T21:40:07.580Z,27.17
2023-01-19T21:43:05.235Z,27.70
2023-01-19T21:46:12.759Z,26.27
2023-01-19T21:49:19.618Z,27.87
2023-01-19T21:52:17.443Z,22.20
2023-01-19T21:55:18.411Z,24.87
2023-01-19T21:58:17.111Z,23.60
2023-01-19T22:01:15.111Z,20.30
2023-01-19T22:04:13.184Z,25.40
2023-01-19T22:07:10.858Z,23.10
2023-01-19T22:10:10.033Z,40.60
2023-01-19T22:13:08.101Z,36.47
2023-01-19T22:16:09.708Z,26.40
2023-01-19T22:19:08.603Z,40.37
2023-01-19T22:22:06.481Z,37.27
2023-01-19T22:25:05.959Z,31.60
2023-01-19T22:28:06.717Z,24.90
2023-01-19T22:31:10.226Z,19.70
2023-01-19T22:34:10.709Z,18.97
2023-01-19T22:37:08.454Z,20.27
2023-01-19T22:40:06.742Z,25.23
2023-01-19T22:43:04.577Z,38.13
2023-01-19T22:46:03.703Z,22.97
2023-01-19T22:49:02.676Z,26.80
2023-01-19T22:52:00.482Z,31.40
2023-01-19T22:54:58.697Z,27.27
2023-01-19T22:57:56.447Z,31.40
2023-01-19T23:00:54.285Z,27.70
2023-01-19T23:03:52.654Z,28.57
2023-01-19T23:06:52.035Z,27.07
2023-01-19T23:09:49.737Z,32.00
2023-01-19T23:12:49.003Z,38.03
2023-01-19T23:15:46.811Z,28.27
2023-01-19T23:18:45.460Z,42.60
2023-01-19T23:21:43.354Z,46.53
2023-01-19T23:24:40.986Z,39.00
2023-01-19T23:27:38.756Z,34.80
2023-01-19T23:30:36.513Z,29.43
2023-01-19T23:33:34.249Z,32.27
2023-01-19T23:36:34.312Z,26.83
2023-01-19T23:39:32.157Z,25.93
2023-01-19T23:42:29.734Z,27.47
2023-01-19T23:45:27.484Z,30.10
2023-01-19T23:48:25.099Z,30.50
2023-01-19T23:51:28.555Z,28.93
2023-01-19T23:54:26.269Z,23.57
2023-01-19T23:57:24.132Z,24.17
